Saturday, August 24, 2019, 2:18 AM CDT
Back to Local

KT82, Fredericksburg, Gillespie County Airport

Location: Fredericksburg, TX, United States Lat: 30.244
Local Time: 2:18 AM CDT ( 7:18 GMT) Lon: -98.909
Time Zone: US/Central Elev: 1696 ft

Show me the last for .
Show Decoded

2019-08-24 01:35 METAR KT82 240635Z AUTO 00000KT 4SM VCTSRA SCT033 BKN047 OVC075 23/22 A3000 RMK
                 AO2 LTG DSNT SW P0008 T02300215 =
2019-08-24 01:15 METAR KT82 240615Z AUTO 00000KT 7SM RA SCT015 BKN070 OVC080 23/22 A3000 RMK AO2
                 LTG DSNT SW P0002 T02300215 =
2019-08-24 00:55 METAR KT82 240555Z AUTO 01004KT 7SM RA SCT008 BKN022 OVC070 23/22 A3000 RMK AO2
                 LTG DSNT SW P0009 60009 T02310215 10326 20231 403610223 =
2019-08-24 00:35 METAR KT82 240535Z AUTO 02004KT 7SM VCTSRA SCT008 BKN025 OVC035 23/22 A3000 RMK
                 AO2 LTG DSNT SW AND NW P0004 T02320215 =
2019-08-24 00:15 METAR KT82 240515Z AUTO 02007KT 10SM VCTSRA BKN027 BKN031 OVC039 24/22 A3000 RMK
                 AO2 LTG DSNT SW AND NW P0001 T02350215 =
2019-08-23 23:55 METAR KT82 240455Z AUTO 03010KT 10SM -TSRA BKN031 OVC039 24/21 A2999 RMK AO2 LTG
                 DSNT SW THRU N T02440211 =
2019-08-23 23:35 METAR KT82 240435Z AUTO 07004KT 10SM -VCTSRA BKN031 OVC037 27/20 A2998 RMK AO2
                 LTG DSNT SW THRU NE T02660201 =
2019-08-23 23:15 METAR KT82 240415Z AUTO 10005KT 10SM SCT035 BKN060 BKN080 27/20 A2997 RMK AO2
                 LTG DSNT SW AND NW T02720195 =
2019-08-23 22:55 METAR KT82 240355Z AUTO 10004KT 10SM SCT060 SCT080 27/20 A2996 RMK AO2 LTG DSNT
                 W T02730200 =
2019-08-23 22:35 METAR KT82 240335Z AUTO 12004KT 10SM SCT060 28/20 A2996 RMK AO2 T02750203 =
2019-08-23 22:15 METAR KT82 240315Z AUTO 11006KT 10SM CLR 28/20 A2996 RMK AO2 T02760203 =
2019-08-23 21:55 METAR KT82 240255Z AUTO 13006KT 10SM CLR 28/21 A2994 RMK AO2 T02780205 =
2019-08-23 21:35 METAR KT82 240235Z AUTO 14008G15KT 10SM SCT070 SCT075 29/20 A2994 RMK AO2
                 T02850203 =
2019-08-23 21:15 METAR KT82 240215Z AUTO 13009KT 10SM SCT065 30/18 A2992 RMK AO2 LTG DSNT NW
                 T03010180 =
2019-08-23 20:55 METAR KT82 240155Z AUTO 00000KT 10SM CLR 31/16 A2990 RMK AO2 LTG DSNT NW
                 T03070161 =
2019-08-23 20:35 METAR KT82 240135Z AUTO 14003KT 10SM VCTS CLR 31/16 A2989 RMK AO2 T03100159 =
2019-08-23 20:15 METAR KT82 240115Z AUTO 15005KT 10SM CLR 31/16 A2989 RMK AO2 LTG DSNT N AND NW
                 T03130157 =
2019-08-23 19:55 METAR KT82 240055Z AUTO 15006KT 10SM CLR 32/16 A2987 RMK AO2 LTG DSNT N
                 T03160155 =
2019-08-23 19:35 METAR KT82 240035Z AUTO 15007KT 10SM CLR 32/16 A2987 RMK AO2 LTG DSNT N AND NW
                 T03200160 =
2019-08-23 19:15 METAR KT82 240015Z AUTO 14008KT 10SM SCT075 32/16 A2986 RMK AO2 LTG DSNT N AND
                 NW T03240160 =
2019-08-23 18:55 METAR KT82 232355Z AUTO 14009KT 10SM SCT075 33/16 A2986 RMK AO2 T03270162 10361
                 20312 =
2019-08-23 18:35 METAR KT82 232335Z AUTO 14008KT 10SM SCT075 33/16 A2986 RMK AO2 T03270161 =
2019-08-23 18:15 METAR KT82 232315Z AUTO 14008KT 10SM SCT060 33/16 A2987 RMK AO2 T03310162 =
2019-08-23 17:55 METAR KT82 232255Z AUTO 13008G14KT 10SM SCT065 34/16 A2986 RMK AO2 T03380162 =
2019-08-23 17:35 METAR KT82 232235Z AUTO 13005KT 10SM SCT065 SCT080 SCT100 33/16 A2985 RMK AO2
                 T03320155 =
2019-08-23 17:15 METAR KT82 232215Z AUTO 10008G14KT 10SM SCT065 BKN080 BKN100 34/16 A2986 RMK AO2
                 T03360156 =
2019-08-23 16:55 METAR KT82 232155Z AUTO 13007KT 10SM SCT065 35/15 A2986 RMK AO2 T03500153 =
2019-08-23 16:35 METAR KT82 232135Z AUTO 13006KT 10SM SCT065 34/15 A2987 RMK AO2 T03410151 =
2019-08-23 16:15 METAR KT82 232115Z AUTO 14006KT 10SM SCT065 36/15 A2986 RMK AO2 T03560151 =
2019-08-23 15:55 METAR KT82 232055Z AUTO 15008KT 10SM SCT065 36/15 A2987 RMK AO2 T03590147 =
2019-08-23 15:35 METAR KT82 232035Z AUTO 11007KT 10SM CLR 35/16 A2988 RMK AO2 T03540155 =
2019-08-23 15:15 METAR KT82 232015Z AUTO 10007KT 050V180 10SM SCT060 35/15 A2990 RMK AO2
                 T03520151 =
2019-08-23 14:55 METAR KT82 231955Z AUTO 11006KT 10SM SCT060 33/16 A2991 RMK AO2 T03310159 =
2019-08-23 14:35 METAR KT82 231935Z AUTO 09006KT 10SM SCT055 34/16 A2992 RMK AO2 T03380163 =
2019-08-23 14:15 METAR KT82 231915Z AUTO 07006KT 10SM SCT055 34/16 A2994 RMK AO2 T03350162 =
2019-08-23 13:55 METAR KT82 231855Z AUTO 02005KT 10SM SCT055 33/17 A2994 RMK AO2 T03290166 =
2019-08-23 13:35 METAR KT82 231835Z AUTO 16005KT 10SM CLR 33/17 A2994 RMK AO2 T03260171 =
2019-08-23 13:15 METAR KT82 231815Z AUTO 10003KT 10SM CLR 32/17 A2995 RMK AO2 T03180166 =
2019-08-23 12:55 METAR KT82 231755Z AUTO 00000KT 10SM CLR 31/17 A2995 RMK AO2 T03120168 10322
                 20229 =
2019-08-23 12:35 METAR KT82 231735Z AUTO 00000KT 10SM CLR 32/17 A2995 RMK AO2 T03200172 =
2019-08-23 12:15 METAR KT82 231715Z AUTO 19006KT 10SM CLR 32/18 A2996 RMK AO2 T03160175 =
2019-08-23 11:55 METAR KT82 231655Z AUTO 00000KT 10SM CLR 30/18 A2997 RMK AO2 T03030177 =
2019-08-23 11:35 METAR KT82 231635Z AUTO 00000KT 10SM CLR 30/19 A2997 RMK AO2 T02980189 =
2019-08-23 11:15 METAR KT82 231615Z AUTO 20005KT 10SM CLR 30/19 A2997 RMK AO2 T02980191 =
2019-08-23 10:55 METAR KT82 231555Z AUTO 00000KT 10SM CLR 29/20 A2998 RMK AO2 T02890195 =
2019-08-23 10:35 METAR KT82 231535Z AUTO 22003KT 10SM CLR 28/20 A2998 RMK AO2 T02800198 =
2019-08-23 10:15 METAR KT82 231515Z AUTO 19004KT 10SM CLR 27/20 A2997 RMK AO2 T02710197 =
2019-08-23 09:55 METAR KT82 231455Z AUTO 20006KT 10SM CLR 27/20 A2998 RMK AO2 T02670197 =
2019-08-23 09:35 METAR KT82 231435Z AUTO 21008KT 180V240 10SM CLR 28/20 A2998 RMK AO2 T02750198 =
2019-08-23 09:15 METAR KT82 231415Z AUTO 21006KT 10SM SCT016 26/20 A2998 RMK AO2 T02610202 =
2019-08-23 08:55 METAR KT82 231355Z AUTO 19005KT 10SM BKN014 26/21 A2998 RMK AO2 T02560205 =
2019-08-23 08:35 METAR KT82 231335Z AUTO 20007KT 10SM BKN012 25/21 A2998 RMK AO2 T02500205 =
2019-08-23 08:15 METAR KT82 231315Z AUTO 00000KT 10SM SCT012 24/21 A2998 RMK AO2 T02420210 =
2019-08-23 07:55 METAR KT82 231255Z AUTO 00000KT 10SM SCT012 SCT020 24/21 A2998 RMK AO2 T02350209
                 =
2019-08-23 07:35 METAR KT82 231235Z AUTO 21003KT 10SM OVC018 24/21 A2998 RMK AO2 T02350207 =
2019-08-23 07:15 METAR KT82 231215Z AUTO 00000KT 10SM BKN018 23/21 A2998 RMK AO2 T02300206 =
2019-08-23 06:55 METAR KT82 231155Z AUTO 20004KT 10SM SCT017 23/21 A2998 RMK AO2 T02300205 10257
                 20223 =
2019-08-23 06:35 METAR KT82 231135Z AUTO 19003KT 10SM SCT021 23/20 A2997 RMK AO2 T02300202 =
2019-08-23 06:15 METAR KT82 231115Z AUTO 00000KT 10SM OVC021 23/20 A2997 RMK AO2 T02290202 =
2019-08-23 05:55 METAR KT82 231055Z AUTO 00000KT 10SM OVC019 23/20 A2997 RMK AO2 T02320203 =
2019-08-23 05:35 METAR KT82 231035Z AUTO 00000KT 10SM OVC017 23/21 A2997 RMK AO2 T02300205 =
2019-08-23 05:15 METAR KT82 231015Z AUTO 15003KT 10SM BKN017 23/20 A2996 RMK AO2 T02280204 =
2019-08-23 04:55 METAR KT82 230955Z AUTO 00000KT 10SM CLR 23/20 A2996 RMK AO2 T02250200 =
2019-08-23 04:35 METAR KT82 230935Z AUTO 00000KT 10SM CLR 23/20 A2996 RMK AO2 T02270201 =
2019-08-23 04:15 METAR KT82 230915Z AUTO 09003KT 10SM CLR 23/20 A2995 RMK AO2 T02280202 =
2019-08-23 03:55 METAR KT82 230855Z AUTO 00000KT 10SM CLR 23/20 A2996 RMK AO2 T02290197 =
2019-08-23 03:35 METAR KT82 230835Z AUTO 00000KT 10SM CLR 24/20 A2996 RMK AO2 T02350200 =
2019-08-23 03:15 METAR KT82 230815Z AUTO 14003KT 10SM CLR 24/20 A2996 RMK AO2 T02380200 =
2019-08-23 02:55 METAR KT82 230755Z AUTO 17005KT 10SM CLR 24/20 A2997 RMK AO2 LTG DSNT NW
                 T02400200 =
2019-08-23 02:35 METAR KT82 230735Z AUTO 17003KT 10SM CLR 24/20 A2997 RMK AO2 T02430200 =

Support USWX by starting your Amazon purchase here.